createdAt,value
2023-04-16T00:03:16.532Z,96483.79
2023-04-16T00:13:19.991Z,96490.05
2023-04-16T00:23:25.153Z,96498.20
2023-04-16T00:33:30.319Z,96504.83
2023-04-16T00:43:33.348Z,96509.46
2023-04-16T00:53:36.674Z,96511.52
2023-04-16T01:03:45.835Z,96519.10
2023-04-16T01:13:49.260Z,96522.61
2023-04-16T01:23:53.069Z,96521.52
2023-04-16T01:33:56.201Z,96522.20
2023-04-16T01:43:59.874Z,96524.02
2023-04-16T01:54:03.146Z,96531.39
2023-04-16T02:04:07.560Z,96543.31
2023-04-16T02:14:10.795Z,96547.64
2023-04-16T02:24:14.124Z,96559.02
2023-04-16T02:34:18.284Z,96569.30
2023-04-16T02:44:21.555Z,96572.08
2023-04-16T02:54:24.680Z,96575.33
2023-04-16T03:04:27.861Z,96583.91
2023-04-16T03:14:31.405Z,96598.76
2023-04-16T03:24:34.491Z,96602.83
2023-04-16T03:34:37.592Z,96610.16
2023-04-16T03:44:41.045Z,96621.48
2023-04-16T03:54:45.469Z,96639.19
2023-04-16T04:04:57.989Z,96655.23
2023-04-16T04:15:01.110Z,96666.88
2023-04-16T04:25:04.449Z,96668.74
2023-04-16T04:35:09.110Z,96677.16
2023-04-16T04:45:12.590Z,96686.23
2023-04-16T04:55:17.036Z,96693.04
2023-04-16T05:05:20.530Z,96707.75
2023-04-16T05:15:23.689Z,96714.30
2023-04-16T05:25:26.803Z,96722.91
2023-04-16T05:35:29.878Z,96724.98
2023-04-16T05:45:33.586Z,96719.03
2023-04-16T05:55:39.190Z,96726.27
2023-04-16T06:05:42.510Z,96723.27
2023-04-16T06:15:45.758Z,96734.88
2023-04-16T06:25:59.617Z,96740.75
2023-04-16T06:36:04.748Z,96737.77
2023-04-16T06:46:08.034Z,96734.88
2023-04-16T06:56:11.557Z,96729.89
2023-04-16T07:06:14.762Z,96727.35
2023-04-16T07:16:20.808Z,96730.42
2023-04-16T07:26:24.479Z,96734.08
2023-04-16T07:36:28.593Z,96747.73
2023-04-16T07:46:43.621Z,96757.96
2023-04-16T07:56:51.542Z,96764.64
2023-04-16T08:06:56.699Z,96760.25
2023-04-16T08:17:02.736Z,96768.48
2023-04-16T08:38:32.413Z,96764.83
2023-04-16T08:48:37.330Z,96765.88
2023-04-16T08:58:40.508Z,96774.14
2023-04-16T09:08:46.693Z,96778.63
2023-04-16T09:18:49.819Z,96778.83
2023-04-16T09:28:52.888Z,96777.48
2023-04-16T09:38:57.781Z,96780.17
2023-04-16T09:49:18.800Z,96787.27
2023-04-16T09:59:23.896Z,96789.22
2023-04-16T10:09:32.429Z,96790.17
2023-04-16T10:19:36.263Z,96788.23
2023-04-16T10:29:39.633Z,96781.71
2023-04-16T10:39:42.735Z,96786.23
2023-04-16T10:49:48.318Z,96792.23
2023-04-16T10:59:51.505Z,96793.79
2023-04-16T11:09:54.611Z,96795.84
2023-04-16T11:19:57.856Z,96800.48
2023-04-16T11:30:06.126Z,96799.17
2023-04-16T11:40:09.793Z,96799.02
2023-04-16T11:50:20.483Z,96792.00
2023-04-16T12:00:24.993Z,96792.50
2023-04-16T12:10:28.679Z,96784.98
2023-04-16T12:20:40.488Z,96789.98
2023-04-16T12:41:19.027Z,96780.56
2023-04-16T12:51:22.186Z,96778.21
2023-04-16T13:01:25.665Z,96779.94
2023-04-16T13:11:28.954Z,96768.09
2023-04-16T13:21:32.412Z,96774.93
2023-04-16T13:31:35.709Z,96779.36
2023-04-16T13:41:39.245Z,96772.13
2023-04-16T13:51:45.442Z,96775.09
2023-04-16T14:01:48.517Z,96774.56
2023-04-16T14:11:51.796Z,96780.71
2023-04-16T14:21:54.933Z,96784.33
2023-04-16T14:31:57.954Z,96783.73
2023-04-16T14:42:01.053Z,96783.31
2023-04-16T14:52:05.816Z,96778.34
2023-04-16T15:02:10.101Z,96773.05
2023-04-16T15:12:13.245Z,96778.05
2023-04-16T15:22:16.969Z,96780.63
2023-04-16T15:32:20.072Z,96780.89
2023-04-16T15:42:24.459Z,96784.98
2023-04-16T15:52:27.989Z,96795.61
2023-04-16T16:02:31.604Z,96801.86
2023-04-16T16:12:35.848Z,96807.06
2023-04-16T16:22:39.358Z,96812.59
2023-04-16T16:32:44.133Z,96818.70
2023-04-16T16:43:19.261Z,96821.39
2023-04-16T16:53:23.744Z,96834.60
2023-04-16T17:03:26.868Z,96847.13
2023-04-16T17:13:32.830Z,96852.56
2023-04-16T17:23:35.997Z,96863.87
2023-04-16T17:33:39.137Z,96872.06
2023-04-16T17:43:43.219Z,96883.05
2023-04-16T17:53:46.401Z,96893.55
2023-04-16T18:03:49.804Z,96901.27
2023-04-16T18:13:54.105Z,96911.20
2023-04-16T18:23:57.917Z,96920.87
2023-04-16T18:34:01.005Z,96931.61
2023-04-16T18:44:04.201Z,96936.45
2023-04-16T18:54:07.352Z,96945.20
2023-04-16T19:04:10.713Z,96943.47
2023-04-16T19:14:14.085Z,96948.71
2023-04-16T19:24:17.169Z,96949.92
2023-04-16T19:34:20.833Z,96950.27
2023-04-16T19:44:23.916Z,96947.11
2023-04-16T19:54:27.493Z,96940.44
2023-04-16T20:04:30.614Z,96940.90
2023-04-16T20:14:33.772Z,96939.31
2023-04-16T20:24:38.648Z,96937.48
2023-04-16T20:35:14.495Z,96934.59
2023-04-16T20:45:18.941Z,96932.70
2023-04-16T20:55:22.143Z,96936.78
2023-04-16T21:05:26.673Z,96937.11
2023-04-16T21:15:31.037Z,96940.41
2023-04-16T21:25:34.905Z,96936.50
2023-04-16T21:35:38.863Z,96937.41
2023-04-16T21:45:42.824Z,96936.65
2023-04-16T21:55:45.936Z,96933.84
2023-04-16T22:05:49.280Z,96935.30
2023-04-16T22:15:53.187Z,96935.23
2023-04-16T22:25:56.726Z,96937.32
2023-04-16T22:36:00.243Z,96939.63
2023-04-16T22:46:06.764Z,96940.59
2023-04-16T22:56:09.877Z,96934.83
2023-04-16T23:06:12.916Z,96932.85
2023-04-16T23:16:16.146Z,96932.77
2023-04-16T23:26:22.740Z,96933.91
2023-04-16T23:36:27.084Z,96934.88
2023-04-16T23:46:30.221Z,96936.40
2023-04-16T23:56:33.364Z,96928.96
